Maha Roos — AVFT — position and weather

sailwx.info

Track history (hours):
 
Tides and Currents Weather Stations Pressure Air Temp Water Temp Dewpoint Dewpoint Depression Visibility Wind Speed Wind Dir Waves Ship Positions

Maha Roos

Last reported at 2017-Dec-21 09:37 UTC. Time now 2018-Jan-21 03:17 UTC.
Position N 35°59' E 027°16'.
Warning: this ship's position is 30 days out of date.

Length 225 m; draft 13.1 m.

Type: Cargo ship. MMSI: 419000124.

Date/timePositionNaut miles runAvg speedWind from/ knotsBaromVisibWave heightAir tempDewpointWater temp
2017-Dec-21 09:37N 35°59' E 027°16'111.5
2017-Dec-21 09:30N 36°00' E 027°15'611.5
2017-Dec-21 09:00N 36°05' E 027°11'611.5
2017-Dec-21 08:29N 36°09' E 027°06'7 9.9
2017-Dec-21 07:45N 36°14' E 026°59'2 9.7
2017-Dec-21 07:31N 36°16' E 026°57'21 9.6
2017-Dec-21 05:18N 36°32' E 026°41'3 9.3
2017-Dec-21 05:00N 36°34' E 026°38'5 9.3
2017-Dec-21 04:27N 36°37' E 026°33'4 9.8
2017-Dec-21 04:00N 36°40' E 026°29'5 9.7
2017-Dec-21 03:31N 36°44' E 026°25'5 9.8
2017-Dec-21 03:00N 36°48' E 026°21'5 9.8
2017-Dec-21 02:30N 36°51' E 026°17'5 9.6
2017-Dec-21 02:00N 36°55' E 026°14'5 9.2
2017-Dec-21 01:30N 36°60' E 026°11'4 9.0
2017-Dec-21 01:00N 37°03' E 026°09'5 9.2
2017-Dec-21 00:30N 37°07' E 026°06'5 9.4
2017-Dec-21 00:00N 37°12' E 026°03'5 9.5
2017-Dec-20 23:30N 37°16' E 026°00'5 9.8
2017-Dec-20 23:00N 37°20' E 025°57'5 9.7
2017-Dec-20 22:30N 37°24' E 025°54'5 9.3
2017-Dec-20 22:00N 37°28' E 025°51'5 9.3
2017-Dec-20 21:30N 37°33' E 025°51'5 9.8
2017-Dec-20 21:00N 37°38' E 025°51'5 9.6
2017-Dec-20 20:28N 37°43' E 025°50'5 9.4
2017-Dec-20 19:58N 37°48' E 025°50'68 9.4
2017-Dec-20 12:45N 38°55' E 025°43'2 9.7
2017-Dec-20 12:30N 38°57' E 025°43'5 9.9
2017-Dec-20 11:57N 39°03' E 025°43'510.0
2017-Dec-20 11:30N 39°07' E 025°43'510.0
2017-Dec-20 11:00N 39°12' E 025°43'5 9.8
2017-Dec-20 10:30N 39°17' E 025°43'5 9.7
2017-Dec-20 10:00N 39°22' E 025°44'5 9.4
2017-Dec-20 09:30N 39°27' E 025°44'168 8.8
2017-Dec-19 14:23N 40°54' E 028°51'2 4.6
2017-Dec-19 13:57N 40°52' E 028°53'2 4.2
2017-Dec-19 13:22N 40°50' E 028°53'1 1.8
2017-Dec-19 13:00N 40°50' E 028°53'0 0.6
2017-Dec-19 12:21N 40°51' E 028°54'0 0.6
2017-Dec-19 11:47N 40°51' E 028°54'0 0.8
2017-Dec-19 11:28N 40°51' E 028°54'0 1.0
2017-Dec-19 10:59N 40°51' E 028°55'2 3.9
2017-Dec-19 10:30N 40°53' E 028°56'3 4.8
2017-Dec-19 09:49N 40°56' E 028°57'419 9.4
2017-Dec-17 13:19N 44°20' E 037°14'310.2
2017-Dec-17 13:00N 44°22' E 037°18'510.2
2017-Dec-17 12:30N 44°24' E 037°24'510.1
2017-Dec-17 12:00N 44°27' E 037°31'510.2
2017-Dec-17 11:30N 44°29' E 037°37'5 9.8
2017-Dec-17 11:00N 44°30' E 037°44'4 8.1
2017-Dec-17 10:30N 44°33' E 037°48'4 7.1
2017-Dec-17 10:00N 44°36' E 037°51'3 5.5
2017-Dec-17 09:30N 44°37' E 037°55'0 0.4
2017-Dec-17 09:00N 44°36' E 037°54'0 0.1
2017-Dec-17 08:28N 44°36' E 037°54'0 0.1
2017-Dec-17 07:58N 44°36' E 037°54'0 0.3
2017-Dec-17 07:28N 44°36' E 037°54'0 0.1
2017-Dec-17 06:58N 44°36' E 037°54'0 0.1
2017-Dec-17 06:28N 44°36' E 037°54'0 0.0
2017-Dec-17 05:58N 44°36' E 037°54'0 0.1
2017-Dec-17 05:28N 44°36' E 037°54'0 0.1
2017-Dec-17 04:58N 44°36' E 037°55'0 0.1
2017-Dec-17 04:28N 44°36' E 037°55'0 0.1
2017-Dec-17 03:58N 44°36' E 037°55'0 0.0
2017-Dec-17 03:28N 44°36' E 037°55'0 0.0
2017-Dec-17 02:58N 44°36' E 037°55'0 0.0
2017-Dec-17 02:28N 44°36' E 037°55'0 0.1
2017-Dec-17 01:58N 44°36' E 037°55'0 0.1
2017-Dec-17 01:28N 44°36' E 037°55'0 0.1
2017-Dec-17 00:58N 44°36' E 037°54'0 0.0
2017-Dec-17 00:28N 44°36' E 037°54'0 0.1
2017-Dec-16 23:58N 44°36' E 037°54'0 0.0
2017-Dec-16 23:25N 44°36' E 037°54'0 0.0
2017-Dec-16 22:58N 44°36' E 037°54'0 0.0
2017-Dec-16 22:28N 44°36' E 037°54'0 0.1
2017-Dec-16 21:58N 44°36' E 037°55'0 0.0
2017-Dec-16 21:28N 44°36' E 037°55'0 0.0
2017-Dec-16 20:58N 44°36' E 037°55'0 0.0
2017-Dec-16 20:28N 44°36' E 037°55'0 0.0
2017-Dec-16 19:58N 44°36' E 037°54'0 0.0
2017-Dec-16 19:28N 44°36' E 037°55'0 0.0
2017-Dec-16 18:58N 44°36' E 037°55'0 0.0
2017-Dec-16 18:28N 44°36' E 037°55'0 0.0
2017-Dec-16 17:58N 44°36' E 037°55'0 0.0
2017-Dec-16 17:28N 44°36' E 037°55'0 0.1
2017-Dec-16 16:58N 44°36' E 037°54'0 0.1
2017-Dec-16 16:28N 44°36' E 037°54'0 0.0
2017-Dec-16 15:58N 44°36' E 037°54'0 0.0
2017-Dec-16 15:25N 44°36' E 037°54'0 0.0
2017-Dec-16 14:58N 44°36' E 037°54'0 0.0
2017-Dec-16 14:25N 44°36' E 037°54'0 0.0
2017-Dec-16 13:58N 44°36' E 037°54'0 0.0
2017-Dec-16 13:28N 44°36' E 037°54'0 0.0
2017-Dec-16 12:58N 44°36' E 037°54'0 0.0
2017-Dec-16 12:28N 44°36' E 037°54'0 0.0
2017-Dec-16 11:58N 44°36' E 037°54'0 0.0
2017-Dec-16 11:28N 44°36' E 037°54'0 0.0
2017-Dec-16 10:58N 44°36' E 037°54'0 0.0
2017-Dec-16 10:28N 44°36' E 037°54'0 0.0
2017-Dec-16 09:58N 44°36' E 037°54'0 0.0
2017-Dec-16 09:28N 44°36' E 037°54'0 0.0
2017-Dec-16 08:58N 44°36' E 037°54'0 0.0
2017-Dec-16 08:28N 44°36' E 037°54'0 0.0
2017-Dec-16 07:58N 44°36' E 037°54'0 0.0
2017-Dec-16 07:28N 44°36' E 037°54'0 0.0
2017-Dec-16 06:58N 44°36' E 037°54'0 0.0
2017-Dec-16 06:28N 44°36' E 037°54'0 0.0
2017-Dec-16 05:58N 44°36' E 037°54'0 0.0
2017-Dec-16 05:28N 44°36' E 037°54'0 0.0
2017-Dec-16 04:55N 44°36' E 037°54'0 0.0
2017-Dec-16 04:25N 44°36' E 037°54'0 0.0
2017-Dec-16 03:58N 44°36' E 037°54'0 0.0
2017-Dec-16 03:28N 44°36' E 037°54'0 0.0
2017-Dec-16 02:58N 44°36' E 037°54'0 0.1
2017-Dec-16 02:28N 44°36' E 037°54'0 0.0
2017-Dec-16 01:58N 44°36' E 037°54'0 0.0
2017-Dec-16 01:28N 44°36' E 037°54'0 0.0
2017-Dec-16 00:58N 44°36' E 037°54'0 0.0
2017-Dec-16 00:28N 44°36' E 037°54'0 0.0
2017-Dec-15 23:58N 44°36' E 037°54'0 0.0
2017-Dec-15 23:28N 44°36' E 037°54'0 0.0
2017-Dec-15 22:58N 44°36' E 037°54'0 0.0
2017-Dec-15 22:28N 44°36' E 037°54'0 0.0
2017-Dec-15 21:58N 44°36' E 037°54'0 0.0
2017-Dec-15 21:28N 44°36' E 037°54'0 0.0
2017-Dec-15 20:58N 44°36' E 037°54'0 0.0
2017-Dec-15 20:28N 44°36' E 037°54'0 0.0
2017-Dec-15 19:58N 44°36' E 037°54'0 0.0
2017-Dec-15 19:28N 44°36' E 037°54'0 0.0
2017-Dec-15 18:58N 44°36' E 037°54'0 0.0
2017-Dec-15 18:28N 44°36' E 037°54'0 0.0
2017-Dec-15 17:58N 44°36' E 037°54'0 0.0
2017-Dec-15 17:28N 44°36' E 037°54'0 0.0
2017-Dec-15 16:58N 44°36' E 037°54'0 0.0
2017-Dec-15 16:28N 44°36' E 037°54'0 0.0
2017-Dec-15 15:58N 44°36' E 037°54'0 0.0
2017-Dec-15 15:28N 44°36' E 037°54'0 0.0
2017-Dec-15 14:58N 44°36' E 037°54'0 0.0
2017-Dec-15 14:28N 44°36' E 037°54'0 0.0
2017-Dec-15 13:58N 44°36' E 037°54'0 0.0
2017-Dec-15 13:28N 44°36' E 037°54'0 0.0
2017-Dec-15 12:58N 44°36' E 037°54'0 0.0
2017-Dec-15 12:25N 44°36' E 037°54'0 0.0
2017-Dec-15 11:58N 44°36' E 037°54'0 0.0
2017-Dec-15 11:28N 44°36' E 037°54'0 0.0
2017-Dec-15 10:58N 44°36' E 037°54'0 0.1
2017-Dec-15 10:28N 44°36' E 037°54'0 0.0
2017-Dec-15 09:58N 44°36' E 037°54'0 0.0
2017-Dec-15 09:28N 44°36' E 037°54'0 0.0
2017-Dec-15 08:55N 44°36' E 037°54'0 0.0
2017-Dec-15 08:28N 44°36' E 037°54'0 0.0
2017-Dec-15 07:58N 44°36' E 037°54'0 0.0
2017-Dec-15 07:28N 44°36' E 037°54'0 0.0
2017-Dec-15 06:58N 44°36' E 037°54'0 0.0
2017-Dec-15 06:28N 44°36' E 037°54'0 0.0
2017-Dec-15 05:58N 44°36' E 037°54'0 0.0
2017-Dec-15 05:28N 44°36' E 037°54'0 0.1
2017-Dec-15 04:58N 44°36' E 037°54'0 0.0
2017-Dec-15 03:52N 44°36' E 037°54'0 0.0
2017-Dec-15 02:28N 44°36' E 037°54'0 0.0
2017-Dec-15 00:58N 44°36' E 037°54'0 0.0
2017-Dec-15 00:28N 44°36' E 037°54'0 0.0
2017-Dec-14 18:28N 44°36' E 037°54'0 0.0
2017-Dec-14 17:58N 44°36' E 037°54'0 0.0
2017-Dec-14 17:28N 44°36' E 037°54'0 0.1
2017-Dec-14 16:58N 44°36' E 037°54'0 0.1
2017-Dec-14 16:28N 44°36' E 037°54'0 0.1
2017-Dec-14 15:58N 44°36' E 037°54'0 0.1
2017-Dec-14 14:58N 44°36' E 037°55'0 0.0
2017-Dec-14 14:28N 44°36' E 037°55'0 0.0
2017-Dec-14 13:58N 44°36' E 037°55'0 0.0
2017-Dec-14 13:25N 44°36' E 037°55'0 0.0
2017-Dec-14 12:58N 44°36' E 037°55'0 0.0
2017-Dec-14 12:28N 44°36' E 037°55'0 0.0
2017-Dec-14 11:58N 44°36' E 037°55'0 0.0
2017-Dec-14 11:28N 44°36' E 037°55'0 0.0
2017-Dec-14 10:58N 44°36' E 037°55'0 0.0
2017-Dec-14 10:28N 44°36' E 037°55'0 0.0
2017-Dec-14 09:58N 44°36' E 037°55'0 0.0
2017-Dec-14 09:28N 44°36' E 037°55'0 0.0
2017-Dec-14 08:58N 44°36' E 037°55'0 0.0
2017-Dec-14 08:28N 44°36' E 037°55'0 0.0
2017-Dec-14 07:58N 44°36' E 037°55'0 0.0
2017-Dec-14 07:28N 44°36' E 037°55'0 0.0
2017-Dec-14 06:58N 44°36' E 037°55'0 0.0
2017-Dec-14 06:28N 44°36' E 037°55'0 0.0
2017-Dec-14 05:58N 44°36' E 037°55'0 0.0
2017-Dec-14 05:25N 44°36' E 037°55'0 0.0
2017-Dec-14 04:58N 44°36' E 037°55'0 0.0
2017-Dec-14 04:28N 44°36' E 037°55'0 0.0
2017-Dec-14 03:58N 44°36' E 037°55'0 0.0
2017-Dec-14 03:28N 44°36' E 037°55'0 0.0
2017-Dec-14 02:58N 44°36' E 037°55'0 0.0
2017-Dec-14 02:28N 44°36' E 037°55'0 0.0
2017-Dec-14 01:58N 44°36' E 037°55'0 0.0
2017-Dec-14 01:28N 44°36' E 037°55'0 0.0
2017-Dec-14 00:58N 44°36' E 037°55'0 0.0
2017-Dec-14 00:28N 44°36' E 037°55'0 0.0
2017-Dec-13 23:58N 44°36' E 037°55'0 0.0
2017-Dec-13 23:28N 44°36' E 037°55'0 0.0
2017-Dec-13 22:58N 44°36' E 037°55'0 0.0
2017-Dec-13 22:25N 44°36' E 037°55'0 0.0
2017-Dec-13 21:58N 44°36' E 037°55'0 0.3
2017-Dec-13 21:28N 44°36' E 037°54'0 1.0
2017-Dec-13 21:00N 44°36' E 037°54'2 3.8
2017-Dec-13 20:31N 44°37' E 037°51'3 5.6
2017-Dec-13 20:01N 44°40' E 037°50'3 6.9
2017-Dec-13 19:31N 44°43' E 037°48'1 1.8
2017-Dec-13 18:58N 44°43' E 037°47'0 0.6
2017-Dec-13 18:28N 44°44' E 037°47'0 0.0
2017-Dec-13 17:58N 44°44' E 037°47'0 0.0
2017-Dec-13 17:28N 44°44' E 037°47'0 0.0
2017-Dec-13 16:58N 44°44' E 037°47'0 0.0
2017-Dec-13 16:28N 44°44' E 037°47'0 0.0
2017-Dec-13 15:58N 44°44' E 037°47'0 0.0
2017-Dec-13 15:28N 44°44' E 037°47'0 0.0
2017-Dec-13 14:58N 44°44' E 037°47'0 0.0
2017-Dec-13 14:28N 44°44' E 037°47'0 0.0
2017-Dec-13 13:58N 44°44' E 037°47'0 0.0
2017-Dec-13 13:28N 44°44' E 037°47'0 0.0
2017-Dec-13 12:58N 44°44' E 037°47'0 0.0
2017-Dec-13 12:25N 44°44' E 037°47'0 0.0
2017-Dec-13 11:58N 44°44' E 037°47'0 0.0
2017-Dec-13 11:28N 44°44' E 037°47'0 0.0
2017-Dec-13 10:58N 44°44' E 037°47'0 0.0
2017-Dec-13 10:28N 44°44' E 037°47'0 0.0
2017-Dec-13 09:58N 44°44' E 037°47'0 0.0
2017-Dec-13 09:22N 44°44' E 037°47'0 0.0
2017-Dec-13 08:58N 44°44' E 037°47'0 0.0
2017-Dec-13 08:28N 44°44' E 037°47'0 0.0
2017-Dec-13 07:58N 44°44' E 037°47'0 0.0
2017-Dec-13 07:28N 44°44' E 037°47'0 0.0
2017-Dec-13 06:58N 44°44' E 037°47'0 0.0
2017-Dec-13 06:28N 44°44' E 037°47'0 0.0
2017-Dec-13 05:58N 44°44' E 037°47'0 0.0
2017-Dec-13 05:28N 44°44' E 037°47'0 0.0
2017-Dec-13 04:55N 44°44' E 037°47'0 0.0
2017-Dec-13 04:22N 44°44' E 037°47'0 0.0
2017-Dec-13 03:55N 44°44' E 037°47'0 0.0
2017-Dec-13 03:25N 44°44' E 037°47'0 0.0
2017-Dec-13 02:58N 44°44' E 037°47'0 0.0
2017-Dec-13 02:28N 44°44' E 037°47'0 0.0
2017-Dec-13 01:58N 44°44' E 037°47'0 0.0
2017-Dec-13 01:28N 44°44' E 037°47'0 0.0
2017-Dec-13 00:55N 44°44' E 037°47'0 0.0
2017-Dec-13 00:28N 44°44' E 037°47'0 0.0
2017-Dec-12 23:55N 44°44' E 037°47'0 0.0
2017-Dec-12 23:28N 44°44' E 037°47'0 0.0
2017-Dec-12 22:58N 44°44' E 037°47'0 0.0
2017-Dec-12 22:28N 44°44' E 037°47'0 0.0
2017-Dec-12 21:58N 44°44' E 037°47'0 0.0
2017-Dec-12 21:28N 44°44' E 037°47'0 0.0
2017-Dec-12 20:52N 44°44' E 037°47'0 0.0
2017-Dec-12 20:28N 44°44' E 037°47'0 0.0
2017-Dec-12 19:58N 44°44' E 037°47'0 0.0
2017-Dec-12 19:28N 44°44' E 037°47'0 0.0
2017-Dec-12 18:58N 44°44' E 037°47'0 0.0
2017-Dec-12 18:28N 44°44' E 037°47'0 0.0
2017-Dec-12 17:58N 44°44' E 037°47'0 0.0
2017-Dec-12 17:28N 44°44' E 037°47'0 0.0
2017-Dec-12 16:55N 44°44' E 037°47'0 0.0
2017-Dec-12 16:25N 44°44' E 037°47'0 0.0
2017-Dec-12 15:55N 44°44' E 037°47'0 0.0
2017-Dec-12 15:28N 44°44' E 037°47'0 0.0
2017-Dec-12 14:49N 44°44' E 037°47'0 0.0
2017-Dec-12 14:28N 44°44' E 037°47'0 0.0
2017-Dec-12 13:58N 44°44' E 037°47'0 0.0
2017-Dec-12 13:28N 44°44' E 037°47'0 0.0
2017-Dec-12 12:49N 44°44' E 037°47'0 0.0
2017-Dec-12 12:28N 44°44' E 037°47'0 0.0
2017-Dec-12 11:55N 44°44' E 037°47'0 0.0
2017-Dec-12 11:28N 44°44' E 037°47'0 0.0
2017-Dec-12 10:52N 44°44' E 037°47'0 0.0
2017-Dec-12 10:28N 44°44' E 037°47'0 0.0
2017-Dec-12 09:25N 44°44' E 037°47'0 0.0
2017-Dec-12 08:55N 44°44' E 037°47'0 0.0
2017-Dec-12 08:25N 44°44' E 037°47'0 0.0
2017-Dec-12 07:58N 44°44' E 037°47'0 0.0
2017-Dec-12 07:28N 44°44' E 037°47'0 0.0
2017-Dec-12 06:52N 44°44' E 037°47'0 0.0
2017-Dec-12 06:25N 44°44' E 037°47'0 0.0
2017-Dec-12 05:58N 44°44' E 037°47'0 0.0
2017-Dec-12 05:28N 44°44' E 037°47'0 0.0
2017-Dec-12 04:58N 44°44' E 037°47'0 0.0
2017-Dec-12 04:25N 44°44' E 037°47'0 0.0
2017-Dec-12 03:58N 44°44' E 037°47'0 0.0
2017-Dec-12 03:25N 44°44' E 037°47'0 0.0
2017-Dec-12 02:49N 44°44' E 037°47'0 0.0
2017-Dec-12 02:28N 44°44' E 037°47'0 0.0
2017-Dec-12 01:52N 44°44' E 037°47'0 0.0
2017-Dec-12 01:25N 44°44' E 037°47'0 0.0
2017-Dec-12 00:55N 44°44' E 037°47'0 0.0
2017-Dec-12 00:25N 44°44' E 037°47'0 0.0
2017-Dec-11 23:58N 44°44' E 037°47'0 0.0
2017-Dec-11 23:28N 44°44' E 037°47'0 0.0
2017-Dec-11 22:58N 44°44' E 037°47'0 0.0
2017-Dec-11 22:22N 44°44' E 037°47'0 0.0
2017-Dec-11 21:58N 44°44' E 037°47'0 0.0
2017-Dec-11 21:28N 44°44' E 037°47'0 0.0
2017-Dec-11 20:58N 44°44' E 037°47'0 0.0
2017-Dec-11 20:28N 44°44' E 037°47'0 0.0
2017-Dec-11 19:58N 44°44' E 037°47'0 0.0
2017-Dec-11 19:28N 44°44' E 037°47'0 0.0
2017-Dec-11 18:58N 44°44' E 037°47'0 0.0
2017-Dec-11 18:28N 44°44' E 037°47'0 0.0
2017-Dec-11 17:58N 44°44' E 037°47'0 0.0
2017-Dec-11 17:28N 44°44' E 037°47'0 0.0
2017-Dec-11 16:58N 44°44' E 037°47'0 0.0
2017-Dec-11 16:28N 44°44' E 037°47'0 0.0
2017-Dec-11 15:58N 44°44' E 037°47'0 0.0
2017-Dec-11 15:28N 44°44' E 037°47'0 0.0
2017-Dec-11 14:58N 44°44' E 037°47'0 0.0
2017-Dec-11 14:28N 44°44' E 037°47'0 0.0
2017-Dec-11 13:58N 44°44' E 037°47'0 0.0
2017-Dec-11 13:28N 44°44' E 037°47'0 0.0
2017-Dec-11 12:58N 44°44' E 037°47'0 0.0
2017-Dec-11 12:22N 44°44' E 037°47'0 0.0
2017-Dec-11 11:58N 44°44' E 037°47'0 0.0
2017-Dec-11 11:28N 44°44' E 037°47'0 0.0
2017-Dec-11 10:58N 44°44' E 037°47'0 0.0
2017-Dec-11 10:25N 44°44' E 037°47'0 0.0
2017-Dec-11 09:55N 44°44' E 037°47'  
Track history (hours):
 
Tides and Currents Weather Stations Pressure Air Temp Water Temp Dewpoint Dewpoint Depression Visibility Wind Speed Wind Dir Waves Ship Positions

Maha Roos

Last reported at 2017-Dec-21 09:37 UTC. Time now 2018-Jan-21 03:17 UTC.
Position N 35°59' E 027°16'.
Warning: this ship's position is 30 days out of date.

Length 225 m; draft 13.1 m.

Type: Cargo ship. MMSI: 419000124.

Date/timePositionNaut miles runAvg speedWind from/ knotsBaromVisibWave heightAir tempDewpointWater temp
2017-Dec-21 09:37N 35°59' E 027°16'111.5
2017-Dec-21 09:30N 36°00' E 027°15'611.5
2017-Dec-21 09:00N 36°05' E 027°11'611.5
2017-Dec-21 08:29N 36°09' E 027°06'7 9.9
2017-Dec-21 07:45N 36°14' E 026°59'2 9.7
2017-Dec-21 07:31N 36°16' E 026°57'21 9.6
2017-Dec-21 05:18N 36°32' E 026°41'3 9.3
2017-Dec-21 05:00N 36°34' E 026°38'5 9.3
2017-Dec-21 04:27N 36°37' E 026°33'4 9.8
2017-Dec-21 04:00N 36°40' E 026°29'5 9.7
2017-Dec-21 03:31N 36°44' E 026°25'5 9.8
2017-Dec-21 03:00N 36°48' E 026°21'5 9.8
2017-Dec-21 02:30N 36°51' E 026°17'5 9.6
2017-Dec-21 02:00N 36°55' E 026°14'5 9.2
2017-Dec-21 01:30N 36°60' E 026°11'4 9.0
2017-Dec-21 01:00N 37°03' E 026°09'5 9.2
2017-Dec-21 00:30N 37°07' E 026°06'5 9.4
2017-Dec-21 00:00N 37°12' E 026°03'5 9.5
2017-Dec-20 23:30N 37°16' E 026°00'5 9.8
2017-Dec-20 23:00N 37°20' E 025°57'5 9.7
2017-Dec-20 22:30N 37°24' E 025°54'5 9.3
2017-Dec-20 22:00N 37°28' E 025°51'5 9.3
2017-Dec-20 21:30N 37°33' E 025°51'5 9.8
2017-Dec-20 21:00N 37°38' E 025°51'5 9.6
2017-Dec-20 20:28N 37°43' E 025°50'5 9.4
2017-Dec-20 19:58N 37°48' E 025°50'68 9.4
2017-Dec-20 12:45N 38°55' E 025°43'2 9.7
2017-Dec-20 12:30N 38°57' E 025°43'5 9.9
2017-Dec-20 11:57N 39°03' E 025°43'510.0
2017-Dec-20 11:30N 39°07' E 025°43'510.0
2017-Dec-20 11:00N 39°12' E 025°43'5 9.8
2017-Dec-20 10:30N 39°17' E 025°43'5 9.7
2017-Dec-20 10:00N 39°22' E 025°44'5 9.4
2017-Dec-20 09:30N 39°27' E 025°44'168 8.8
2017-Dec-19 14:23N 40°54' E 028°51'2 4.6
2017-Dec-19 13:57N 40°52' E 028°53'2 4.2
2017-Dec-19 13:22N 40°50' E 028°53'1 1.8
2017-Dec-19 13:00N 40°50' E 028°53'0 0.6
2017-Dec-19 12:21N 40°51' E 028°54'0 0.6
2017-Dec-19 11:47N 40°51' E 028°54'0 0.8
2017-Dec-19 11:28N 40°51' E 028°54'0 1.0
2017-Dec-19 10:59N 40°51' E 028°55'2 3.9
2017-Dec-19 10:30N 40°53' E 028°56'3 4.8
2017-Dec-19 09:49N 40°56' E 028°57'419 9.4
2017-Dec-17 13:19N 44°20' E 037°14'310.2
2017-Dec-17 13:00N 44°22' E 037°18'510.2
2017-Dec-17 12:30N 44°24' E 037°24'510.1
2017-Dec-17 12:00N 44°27' E 037°31'510.2
2017-Dec-17 11:30N 44°29' E 037°37'5 9.8
2017-Dec-17 11:00N 44°30' E 037°44'4 8.1
2017-Dec-17 10:30N 44°33' E 037°48'4 7.1
2017-Dec-17 10:00N 44°36' E 037°51'3 5.5
2017-Dec-17 09:30N 44°37' E 037°55'0 0.4
2017-Dec-17 09:00N 44°36' E 037°54'0 0.1
2017-Dec-17 08:28N 44°36' E 037°54'0 0.1
2017-Dec-17 07:58N 44°36' E 037°54'0 0.3
2017-Dec-17 07:28N 44°36' E 037°54'0 0.1
2017-Dec-17 06:58N 44°36' E 037°54'0 0.1
2017-Dec-17 06:28N 44°36' E 037°54'0 0.0
2017-Dec-17 05:58N 44°36' E 037°54'0 0.1
2017-Dec-17 05:28N 44°36' E 037°54'0 0.1
2017-Dec-17 04:58N 44°36' E 037°55'0 0.1
2017-Dec-17 04:28N 44°36' E 037°55'0 0.1
2017-Dec-17 03:58N 44°36' E 037°55'0 0.0
2017-Dec-17 03:28N 44°36' E 037°55'0 0.0
2017-Dec-17 02:58N 44°36' E 037°55'0 0.0
2017-Dec-17 02:28N 44°36' E 037°55'0 0.1
2017-Dec-17 01:58N 44°36' E 037°55'0 0.1
2017-Dec-17 01:28N 44°36' E 037°55'0 0.1
2017-Dec-17 00:58N 44°36' E 037°54'0 0.0
2017-Dec-17 00:28N 44°36' E 037°54'0 0.1
2017-Dec-16 23:58N 44°36' E 037°54'0 0.0
2017-Dec-16 23:25N 44°36' E 037°54'0 0.0
2017-Dec-16 22:58N 44°36' E 037°54'0 0.0
2017-Dec-16 22:28N 44°36' E 037°54'0 0.1
2017-Dec-16 21:58N 44°36' E 037°55'0 0.0
2017-Dec-16 21:28N 44°36' E 037°55'0 0.0
2017-Dec-16 20:58N 44°36' E 037°55'0 0.0
2017-Dec-16 20:28N 44°36' E 037°55'0 0.0
2017-Dec-16 19:58N 44°36' E 037°54'0 0.0
2017-Dec-16 19:28N 44°36' E 037°55'0 0.0
2017-Dec-16 18:58N 44°36' E 037°55'0 0.0
2017-Dec-16 18:28N 44°36' E 037°55'0 0.0
2017-Dec-16 17:58N 44°36' E 037°55'0 0.0
2017-Dec-16 17:28N 44°36' E 037°55'0 0.1
2017-Dec-16 16:58N 44°36' E 037°54'0 0.1
2017-Dec-16 16:28N 44°36' E 037°54'0 0.0
2017-Dec-16 15:58N 44°36' E 037°54'0 0.0
2017-Dec-16 15:25N 44°36' E 037°54'0 0.0
2017-Dec-16 14:58N 44°36' E 037°54'0 0.0
2017-Dec-16 14:25N 44°36' E 037°54'0 0.0
2017-Dec-16 13:58N 44°36' E 037°54'0 0.0
2017-Dec-16 13:28N 44°36' E 037°54'0 0.0
2017-Dec-16 12:58N 44°36' E 037°54'0 0.0
2017-Dec-16 12:28N 44°36' E 037°54'0 0.0
2017-Dec-16 11:58N 44°36' E 037°54'0 0.0
2017-Dec-16 11:28N 44°36' E 037°54'0 0.0
2017-Dec-16 10:58N 44°36' E 037°54'0 0.0
2017-Dec-16 10:28N 44°36' E 037°54'0 0.0
2017-Dec-16 09:58N 44°36' E 037°54'0 0.0
2017-Dec-16 09:28N 44°36' E 037°54'0 0.0
2017-Dec-16 08:58N 44°36' E 037°54'0 0.0
2017-Dec-16 08:28N 44°36' E 037°54'0 0.0
2017-Dec-16 07:58N 44°36' E 037°54'0 0.0
2017-Dec-16 07:28N 44°36' E 037°54'0 0.0
2017-Dec-16 06:58N 44°36' E 037°54'0 0.0
2017-Dec-16 06:28N 44°36' E 037°54'0 0.0
2017-Dec-16 05:58N 44°36' E 037°54'0 0.0
2017-Dec-16 05:28N 44°36' E 037°54'0 0.0
2017-Dec-16 04:55N 44°36' E 037°54'0 0.0
2017-Dec-16 04:25N 44°36' E 037°54'0 0.0
2017-Dec-16 03:58N 44°36' E 037°54'0 0.0
2017-Dec-16 03:28N 44°36' E 037°54'0 0.0
2017-Dec-16 02:58N 44°36' E 037°54'0 0.1
2017-Dec-16 02:28N 44°36' E 037°54'0 0.0
2017-Dec-16 01:58N 44°36' E 037°54'0 0.0
2017-Dec-16 01:28N 44°36' E 037°54'0 0.0
2017-Dec-16 00:58N 44°36' E 037°54'0 0.0
2017-Dec-16 00:28N 44°36' E 037°54'0 0.0
2017-Dec-15 23:58N 44°36' E 037°54'0 0.0
2017-Dec-15 23:28N 44°36' E 037°54'0 0.0
2017-Dec-15 22:58N 44°36' E 037°54'0 0.0
2017-Dec-15 22:28N 44°36' E 037°54'0 0.0
2017-Dec-15 21:58N 44°36' E 037°54'0 0.0
2017-Dec-15 21:28N 44°36' E 037°54'0 0.0
2017-Dec-15 20:58N 44°36' E 037°54'0 0.0
2017-Dec-15 20:28N 44°36' E 037°54'0 0.0
2017-Dec-15 19:58N 44°36' E 037°54'0 0.0
2017-Dec-15 19:28N 44°36' E 037°54'0 0.0
2017-Dec-15 18:58N 44°36' E 037°54'0 0.0
2017-Dec-15 18:28N 44°36' E 037°54'0 0.0
2017-Dec-15 17:58N 44°36' E 037°54'0 0.0
2017-Dec-15 17:28N 44°36' E 037°54'0 0.0
2017-Dec-15 16:58N 44°36' E 037°54'0 0.0
2017-Dec-15 16:28N 44°36' E 037°54'0 0.0
2017-Dec-15 15:58N 44°36' E 037°54'0 0.0
2017-Dec-15 15:28N 44°36' E 037°54'0 0.0
2017-Dec-15 14:58N 44°36' E 037°54'0 0.0
2017-Dec-15 14:28N 44°36' E 037°54'0 0.0
2017-Dec-15 13:58N 44°36' E 037°54'0 0.0
2017-Dec-15 13:28N 44°36' E 037°54'0 0.0
2017-Dec-15 12:58N 44°36' E 037°54'0 0.0
2017-Dec-15 12:25N 44°36' E 037°54'0 0.0
2017-Dec-15 11:58N 44°36' E 037°54'0 0.0
2017-Dec-15 11:28N 44°36' E 037°54'0 0.0
2017-Dec-15 10:58N 44°36' E 037°54'0 0.1
2017-Dec-15 10:28N 44°36' E 037°54'0 0.0
2017-Dec-15 09:58N 44°36' E 037°54'0 0.0
2017-Dec-15 09:28N 44°36' E 037°54'0 0.0
2017-Dec-15 08:55N 44°36' E 037°54'0 0.0
2017-Dec-15 08:28N 44°36' E 037°54'0 0.0
2017-Dec-15 07:58N 44°36' E 037°54'0 0.0
2017-Dec-15 07:28N 44°36' E 037°54'0 0.0
2017-Dec-15 06:58N 44°36' E 037°54'0 0.0
2017-Dec-15 06:28N 44°36' E 037°54'0 0.0
2017-Dec-15 05:58N 44°36' E 037°54'0 0.0
2017-Dec-15 05:28N 44°36' E 037°54'0 0.1
2017-Dec-15 04:58N 44°36' E 037°54'0 0.0
2017-Dec-15 03:52N 44°36' E 037°54'0 0.0
2017-Dec-15 02:28N 44°36' E 037°54'0 0.0
2017-Dec-15 00:58N 44°36' E 037°54'0 0.0
2017-Dec-15 00:28N 44°36' E 037°54'0 0.0
2017-Dec-14 18:28N 44°36' E 037°54'0 0.0
2017-Dec-14 17:58N 44°36' E 037°54'0 0.0
2017-Dec-14 17:28N 44°36' E 037°54'0 0.1
2017-Dec-14 16:58N 44°36' E 037°54'0 0.1
2017-Dec-14 16:28N 44°36' E 037°54'0 0.1
2017-Dec-14 15:58N 44°36' E 037°54'0 0.1
2017-Dec-14 14:58N 44°36' E 037°55'0 0.0
2017-Dec-14 14:28N 44°36' E 037°55'0 0.0
2017-Dec-14 13:58N 44°36' E 037°55'0 0.0
2017-Dec-14 13:25N 44°36' E 037°55'0 0.0
2017-Dec-14 12:58N 44°36' E 037°55'0 0.0
2017-Dec-14 12:28N 44°36' E 037°55'0 0.0
2017-Dec-14 11:58N 44°36' E 037°55'0 0.0
2017-Dec-14 11:28N 44°36' E 037°55'0 0.0
2017-Dec-14 10:58N 44°36' E 037°55'0 0.0
2017-Dec-14 10:28N 44°36' E 037°55'0 0.0
2017-Dec-14 09:58N 44°36' E 037°55'0 0.0
2017-Dec-14 09:28N 44°36' E 037°55'0 0.0
2017-Dec-14 08:58N 44°36' E 037°55'0 0.0
2017-Dec-14 08:28N 44°36' E 037°55'0 0.0
2017-Dec-14 07:58N 44°36' E 037°55'0 0.0
2017-Dec-14 07:28N 44°36' E 037°55'0 0.0
2017-Dec-14 06:58N 44°36' E 037°55'0 0.0
2017-Dec-14 06:28N 44°36' E 037°55'0 0.0
2017-Dec-14 05:58N 44°36' E 037°55'0 0.0
2017-Dec-14 05:25N 44°36' E 037°55'0 0.0
2017-Dec-14 04:58N 44°36' E 037°55'0 0.0
2017-Dec-14 04:28N 44°36' E 037°55'0 0.0
2017-Dec-14 03:58N 44°36' E 037°55'0 0.0
2017-Dec-14 03:28N 44°36' E 037°55'0 0.0
2017-Dec-14 02:58N 44°36' E 037°55'0 0.0
2017-Dec-14 02:28N 44°36' E 037°55'0 0.0
2017-Dec-14 01:58N 44°36' E 037°55'0 0.0
2017-Dec-14 01:28N 44°36' E 037°55'0 0.0
2017-Dec-14 00:58N 44°36' E 037°55'0 0.0
2017-Dec-14 00:28N 44°36' E 037°55'0 0.0
2017-Dec-13 23:58N 44°36' E 037°55'0 0.0
2017-Dec-13 23:28N 44°36' E 037°55'0 0.0
2017-Dec-13 22:58N 44°36' E 037°55'0 0.0
2017-Dec-13 22:25N 44°36' E 037°55'0 0.0
2017-Dec-13 21:58N 44°36' E 037°55'0 0.3
2017-Dec-13 21:28N 44°36' E 037°54'0 1.0
2017-Dec-13 21:00N 44°36' E 037°54'2 3.8
2017-Dec-13 20:31N 44°37' E 037°51'3 5.6
2017-Dec-13 20:01N 44°40' E 037°50'3 6.9
2017-Dec-13 19:31N 44°43' E 037°48'1 1.8
2017-Dec-13 18:58N 44°43' E 037°47'0 0.6
2017-Dec-13 18:28N 44°44' E 037°47'0 0.0
2017-Dec-13 17:58N 44°44' E 037°47'0 0.0
2017-Dec-13 17:28N 44°44' E 037°47'0 0.0
2017-Dec-13 16:58N 44°44' E 037°47'0 0.0
2017-Dec-13 16:28N 44°44' E 037°47'0 0.0
2017-Dec-13 15:58N 44°44' E 037°47'0 0.0
2017-Dec-13 15:28N 44°44' E 037°47'0 0.0
2017-Dec-13 14:58N 44°44' E 037°47'0 0.0
2017-Dec-13 14:28N 44°44' E 037°47'0 0.0
2017-Dec-13 13:58N 44°44' E 037°47'0 0.0
2017-Dec-13 13:28N 44°44' E 037°47'0 0.0
2017-Dec-13 12:58N 44°44' E 037°47'0 0.0
2017-Dec-13 12:25N 44°44' E 037°47'0 0.0
2017-Dec-13 11:58N 44°44' E 037°47'0 0.0
2017-Dec-13 11:28N 44°44' E 037°47'0 0.0
2017-Dec-13 10:58N 44°44' E 037°47'0 0.0
2017-Dec-13 10:28N 44°44' E 037°47'0 0.0
2017-Dec-13 09:58N 44°44' E 037°47'0 0.0
2017-Dec-13 09:22N 44°44' E 037°47'0 0.0
2017-Dec-13 08:58N 44°44' E 037°47'0 0.0
2017-Dec-13 08:28N 44°44' E 037°47'0 0.0
2017-Dec-13 07:58N 44°44' E 037°47'0 0.0
2017-Dec-13 07:28N 44°44' E 037°47'0 0.0
2017-Dec-13 06:58N 44°44' E 037°47'0 0.0
2017-Dec-13 06:28N 44°44' E 037°47'0 0.0
2017-Dec-13 05:58N 44°44' E 037°47'0 0.0
2017-Dec-13 05:28N 44°44' E 037°47'0 0.0
2017-Dec-13 04:55N 44°44' E 037°47'0 0.0
2017-Dec-13 04:22N 44°44' E 037°47'0 0.0
2017-Dec-13 03:55N 44°44' E 037°47'0 0.0
2017-Dec-13 03:25N 44°44' E 037°47'0 0.0
2017-Dec-13 02:58N 44°44' E 037°47'0 0.0
2017-Dec-13 02:28N 44°44' E 037°47'0 0.0
2017-Dec-13 01:58N 44°44' E 037°47'0 0.0
2017-Dec-13 01:28N 44°44' E 037°47'0 0.0
2017-Dec-13 00:55N 44°44' E 037°47'0 0.0
2017-Dec-13 00:28N 44°44' E 037°47'0 0.0
2017-Dec-12 23:55N 44°44' E 037°47'0 0.0
2017-Dec-12 23:28N 44°44' E 037°47'0 0.0
2017-Dec-12 22:58N 44°44' E 037°47'0 0.0
2017-Dec-12 22:28N 44°44' E 037°47'0 0.0
2017-Dec-12 21:58N 44°44' E 037°47'0 0.0
2017-Dec-12 21:28N 44°44' E 037°47'0 0.0
2017-Dec-12 20:52N 44°44' E 037°47'0 0.0
2017-Dec-12 20:28N 44°44' E 037°47'0 0.0
2017-Dec-12 19:58N 44°44' E 037°47'0 0.0
2017-Dec-12 19:28N 44°44' E 037°47'0 0.0
2017-Dec-12 18:58N 44°44' E 037°47'0 0.0
2017-Dec-12 18:28N 44°44' E 037°47'0 0.0
2017-Dec-12 17:58N 44°44' E 037°47'0 0.0
2017-Dec-12 17:28N 44°44' E 037°47'0 0.0
2017-Dec-12 16:55N 44°44' E 037°47'0 0.0
2017-Dec-12 16:25N 44°44' E 037°47'0 0.0
2017-Dec-12 15:55N 44°44' E 037°47'0 0.0
2017-Dec-12 15:28N 44°44' E 037°47'0 0.0
2017-Dec-12 14:49N 44°44' E 037°47'0 0.0
2017-Dec-12 14:28N 44°44' E 037°47'0 0.0
2017-Dec-12 13:58N 44°44' E 037°47'0 0.0
2017-Dec-12 13:28N 44°44' E 037°47'0 0.0
2017-Dec-12 12:49N 44°44' E 037°47'0 0.0
2017-Dec-12 12:28N 44°44' E 037°47'0 0.0
2017-Dec-12 11:55N 44°44' E 037°47'0 0.0
2017-Dec-12 11:28N 44°44' E 037°47'0 0.0
2017-Dec-12 10:52N 44°44' E 037°47'0 0.0
2017-Dec-12 10:28N 44°44' E 037°47'0 0.0
2017-Dec-12 09:25N 44°44' E 037°47'0 0.0
2017-Dec-12 08:55N 44°44' E 037°47'0 0.0
2017-Dec-12 08:25N 44°44' E 037°47'0 0.0
2017-Dec-12 07:58N 44°44' E 037°47'0 0.0
2017-Dec-12 07:28N 44°44' E 037°47'0 0.0
2017-Dec-12 06:52N 44°44' E 037°47'0 0.0
2017-Dec-12 06:25N 44°44' E 037°47'0 0.0
2017-Dec-12 05:58N 44°44' E 037°47'0 0.0
2017-Dec-12 05:28N 44°44' E 037°47'0 0.0
2017-Dec-12 04:58N 44°44' E 037°47'0 0.0
2017-Dec-12 04:25N 44°44' E 037°47'0 0.0
2017-Dec-12 03:58N 44°44' E 037°47'0 0.0
2017-Dec-12 03:25N 44°44' E 037°47'0 0.0
2017-Dec-12 02:49N 44°44' E 037°47'0 0.0
2017-Dec-12 02:28N 44°44' E 037°47'0 0.0
2017-Dec-12 01:52N 44°44' E 037°47'0 0.0
2017-Dec-12 01:25N 44°44' E 037°47'0 0.0
2017-Dec-12 00:55N 44°44' E 037°47'0 0.0
2017-Dec-12 00:25N 44°44' E 037°47'0 0.0
2017-Dec-11 23:58N 44°44' E 037°47'0 0.0
2017-Dec-11 23:28N 44°44' E 037°47'0 0.0
2017-Dec-11 22:58N 44°44' E 037°47'0 0.0
2017-Dec-11 22:22N 44°44' E 037°47'0 0.0
2017-Dec-11 21:58N 44°44' E 037°47'0 0.0
2017-Dec-11 21:28N 44°44' E 037°47'0 0.0
2017-Dec-11 20:58N 44°44' E 037°47'0 0.0
2017-Dec-11 20:28N 44°44' E 037°47'0 0.0
2017-Dec-11 19:58N 44°44' E 037°47'0 0.0
2017-Dec-11 19:28N 44°44' E 037°47'0 0.0
2017-Dec-11 18:58N 44°44' E 037°47'0 0.0
2017-Dec-11 18:28N 44°44' E 037°47'0 0.0
2017-Dec-11 17:58N 44°44' E 037°47'0 0.0
2017-Dec-11 17:28N 44°44' E 037°47'0 0.0
2017-Dec-11 16:58N 44°44' E 037°47'0 0.0
2017-Dec-11 16:28N 44°44' E 037°47'0 0.0
2017-Dec-11 15:58N 44°44' E 037°47'0 0.0
2017-Dec-11 15:28N 44°44' E 037°47'0 0.0
2017-Dec-11 14:58N 44°44' E 037°47'0 0.0
2017-Dec-11 14:28N 44°44' E 037°47'0 0.0
2017-Dec-11 13:58N 44°44' E 037°47'0 0.0
2017-Dec-11 13:28N 44°44' E 037°47'0 0.0
2017-Dec-11 12:58N 44°44' E 037°47'0 0.0
2017-Dec-11 12:22N 44°44' E 037°47'0 0.0
2017-Dec-11 11:58N 44°44' E 037°47'0 0.0
2017-Dec-11 11:28N 44°44' E 037°47'0 0.0
2017-Dec-11 10:58N 44°44' E 037°47'0 0.0
2017-Dec-11 10:25N 44°44' E 037°47'0 0.0
2017-Dec-11 09:55N 44°44' E 037°47'  

Dump ship's entire track history